sensor_id;sensor_type;location;lat;lon;timestamp;pressure;altitude;pressure_sealevel;temperature
7830;BMP180;3960;51.86894000;5.39848000;2023-02-28T00:02:14;103209.44;;;0.70
7830;BMP180;3960;51.86894000;5.39848000;2023-02-28T00:04:39;103199.63;;;0.66
7830;BMP180;3960;51.86894000;5.39848000;2023-02-28T00:07:04;103194.28;;;0.66
7830;BMP180;3960;51.86894000;5.39848000;2023-02-28T00:09:30;103192.97;;;0.63
7830;BMP180;3960;51.86894000;5.39848000;2023-02-28T00:11:55;103201.25;;;0.62
7830;BMP180;3960;51.86894000;5.39848000;2023-02-28T00:14:20;103195.94;;;0.62
7830;BMP180;3960;51.86894000;5.39848000;2023-02-28T00:16:45;103198.88;;;0.60
7830;BMP180;3960;51.86894000;5.39848000;2023-02-28T00:19:11;103202.34;;;0.61
7830;BMP180;3960;51.86894000;5.39848000;2023-02-28T00:21:38;103200.47;;;0.61
7830;BMP180;3960;51.86894000;5.39848000;2023-02-28T00:24:06;103194.63;;;0.59
7830;BMP180;3960;51.86894000;5.39848000;2023-02-28T00:26:31;103196.94;;;0.66
7830;BMP180;3960;51.86894000;5.39848000;2023-02-28T00:28:56;103200.94;;;0.68
7830;BMP180;3960;51.86894000;5.39848000;2023-02-28T00:31:22;103200.09;;;0.72
7830;BMP180;3960;51.86894000;5.39848000;2023-02-28T00:33:47;103204.59;;;0.77
7830;BMP180;3960;51.86894000;5.39848000;2023-02-28T00:36:12;103191.47;;;0.80
7830;BMP180;3960;51.86894000;5.39848000;2023-02-28T00:38:39;103199.19;;;0.82
7830;BMP180;3960;51.86894000;5.39848000;2023-02-28T00:41:04;103202.09;;;0.85
7830;BMP180;3960;51.86894000;5.39848000;2023-02-28T00:43:34;103196.19;;;0.88
7830;BMP180;3960;51.86894000;5.39848000;2023-02-28T00:46:00;103191.38;;;0.90
7830;BMP180;3960;51.86894000;5.39848000;2023-02-28T00:48:25;103193.47;;;0.93
7830;BMP180;3960;51.86894000;5.39848000;2023-02-28T00:50:50;103195.59;;;0.96
7830;BMP180;3960;51.86894000;5.39848000;2023-02-28T00:53:16;103186.22;;;0.99
7830;BMP180;3960;51.86894000;5.39848000;2023-02-28T00:55:41;103187.06;;;0.94
7830;BMP180;3960;51.86894000;5.39848000;2023-02-28T00:58:06;103182.47;;;1.00
7830;BMP180;3960;51.86894000;5.39848000;2023-02-28T01:00:31;103167.06;;;0.92
7830;BMP180;3960;51.86894000;5.39848000;2023-02-28T01:02:57;103172.94;;;0.94
7830;BMP180;3960;51.86894000;5.39848000;2023-02-28T01:05:22;103188.03;;;1.03
7830;BMP180;3960;51.86894000;5.39848000;2023-02-28T01:07:47;103190.69;;;1.03
7830;BMP180;3960;51.86894000;5.39848000;2023-02-28T01:10:13;103192.31;;;1.04
7830;BMP180;3960;51.86894000;5.39848000;2023-02-28T01:12:38;103187.75;;;1.05
7830;BMP180;3960;51.86894000;5.39848000;2023-02-28T01:15:04;103186.97;;;1.04
7830;BMP180;3960;51.86894000;5.39848000;2023-02-28T01:17:29;103192.00;;;1.06
7830;BMP180;3960;51.86894000;5.39848000;2023-02-28T01:19:55;103201.88;;;1.05
7830;BMP180;3960;51.86894000;5.39848000;2023-02-28T01:22:21;103197.84;;;1.08
7830;BMP180;3960;51.86894000;5.39848000;2023-02-28T01:24:46;103198.34;;;1.10
7830;BMP180;3960;51.86894000;5.39848000;2023-02-28T01:27:11;103202.63;;;1.11
7830;BMP180;3960;51.86894000;5.39848000;2023-02-28T01:29:37;103192.25;;;1.09
7830;BMP180;3960;51.86894000;5.39848000;2023-02-28T01:32:02;103201.25;;;1.13
7830;BMP180;3960;51.86894000;5.39848000;2023-02-28T01:34:27;103194.84;;;1.14
7830;BMP180;3960;51.86894000;5.39848000;2023-02-28T01:36:53;103186.53;;;1.16
7830;BMP180;3960;51.86894000;5.39848000;2023-02-28T01:39:18;103197.44;;;1.19
7830;BMP180;3960;51.86894000;5.39848000;2023-02-28T01:41:43;103196.44;;;1.15
7830;BMP180;3960;51.86894000;5.39848000;2023-02-28T01:47:11;103200.63;;;1.21
7830;BMP180;3960;51.86894000;5.39848000;2023-02-28T01:49:37;103193.94;;;1.24
7830;BMP180;3960;51.86894000;5.39848000;2023-02-28T01:52:03;103189.09;;;1.26
7830;BMP180;3960;51.86894000;5.39848000;2023-02-28T01:54:31;103194.94;;;1.28
7830;BMP180;3960;51.86894000;5.39848000;2023-02-28T01:57:08;103193.59;;;1.30
7830;BMP180;3960;51.86894000;5.39848000;2023-02-28T01:59:39;103201.31;;;1.32
7830;BMP180;3960;51.86894000;5.39848000;2023-02-28T02:02:10;103186.06;;;1.32
7830;BMP180;3960;51.86894000;5.39848000;2023-02-28T02:04:42;103197.56;;;1.33
7830;BMP180;3960;51.86894000;5.39848000;2023-02-28T02:07:12;103186.59;;;1.34
7830;BMP180;3960;51.86894000;5.39848000;2023-02-28T02:09:38;103165.63;;;1.23
7830;BMP180;3960;51.86894000;5.39848000;2023-02-28T02:12:26;103188.97;;;1.36
7830;BMP180;3960;51.86894000;5.39848000;2023-02-28T02:15:02;103180.66;;;1.37
7830;BMP180;3960;51.86894000;5.39848000;2023-02-28T02:17:39;103161.34;;;1.27
7830;BMP180;3960;51.86894000;5.39848000;2023-02-28T02:20:32;103176.66;;;1.40
7830;BMP180;3960;51.86894000;5.39848000;2023-02-28T02:23:21;103160.75;;;1.30
7830;BMP180;3960;51.86894000;5.39848000;2023-02-28T02:31:43;103175.28;;;1.42
7830;BMP180;3960;51.86894000;5.39848000;2023-02-28T02:34:35;103182.44;;;1.46
7830;BMP180;3960;51.86894000;5.39848000;2023-02-28T02:37:28;103182.44;;;1.46
7830;BMP180;3960;51.86894000;5.39848000;2023-02-28T02:40:10;103176.81;;;1.48
7830;BMP180;3960;51.86894000;5.39848000;2023-02-28T02:45:18;103178.41;;;1.49
7830;BMP180;3960;51.86894000;5.39848000;2023-02-28T02:47:45;103163.00;;;1.41
7830;BMP180;3960;51.86894000;5.39848000;2023-02-28T02:50:17;103184.44;;;1.54
7830;BMP180;3960;51.86894000;5.39848000;2023-02-28T02:52:49;103193.75;;;1.57
7830;BMP180;3960;51.86894000;5.39848000;2023-02-28T02:55:17;103182.59;;;1.55
7830;BMP180;3960;51.86894000;5.39848000;2023-02-28T02:57:45;103186.78;;;1.61
7830;BMP180;3960;51.86894000;5.39848000;2023-02-28T03:00:12;103183.81;;;1.62
7830;BMP180;3960;51.86894000;5.39848000;2023-02-28T03:02:40;103184.31;;;1.64
7830;BMP180;3960;51.86894000;5.39848000;2023-02-28T03:05:16;103193.94;;;1.65
7830;BMP180;3960;51.86894000;5.39848000;2023-02-28T03:07:43;103187.47;;;1.66
7830;BMP180;3960;51.86894000;5.39848000;2023-02-28T03:10:33;103190.38;;;1.70
7830;BMP180;3960;51.86894000;5.39848000;2023-02-28T03:16:05;103181.78;;;1.73
7830;BMP180;3960;51.86894000;5.39848000;2023-02-28T03:19:03;103177.44;;;1.77
7830;BMP180;3960;51.86894000;5.39848000;2023-02-28T03:22:04;103186.78;;;1.79
7830;BMP180;3960;51.86894000;5.39848000;2023-02-28T03:24:50;103183.00;;;1.80
7830;BMP180;3960;51.86894000;5.39848000;2023-02-28T03:27:24;103191.53;;;1.82
7830;BMP180;3960;51.86894000;5.39848000;2023-02-28T03:30:03;103188.56;;;1.84
7830;BMP180;3960;51.86894000;5.39848000;2023-02-28T03:32:35;103185.91;;;1.84
7830;BMP180;3960;51.86894000;5.39848000;2023-02-28T03:35:21;103193.06;;;1.88
7830;BMP180;3960;51.86894000;5.39848000;2023-02-28T03:37:51;103196.25;;;1.90
7830;BMP180;3960;51.86894000;5.39848000;2023-02-28T03:40:21;103192.50;;;1.91
7830;BMP180;3960;51.86894000;5.39848000;2023-02-28T03:42:50;103198.63;;;1.92
7830;BMP180;3960;51.86894000;5.39848000;2023-02-28T03:45:30;103178.91;;;1.88
7830;BMP180;3960;51.86894000;5.39848000;2023-02-28T03:48:09;103190.81;;;1.95
7830;BMP180;3960;51.86894000;5.39848000;2023-02-28T03:50:43;103178.09;;;1.87
7830;BMP180;3960;51.86894000;5.39848000;2023-02-28T03:53:20;103189.22;;;1.94
7830;BMP180;3960;51.86894000;5.39848000;2023-02-28T03:55:57;103194.78;;;1.98
7830;BMP180;3960;51.86894000;5.39848000;2023-02-28T03:58:31;103189.72;;;1.96
7830;BMP180;3960;51.86894000;5.39848000;2023-02-28T04:01:09;103187.84;;;1.97
7830;BMP180;3960;51.86894000;5.39848000;2023-02-28T04:03:37;103187.06;;;1.96
7830;BMP180;3960;51.86894000;5.39848000;2023-02-28T04:06:04;103166.31;;;1.88
7830;BMP180;3960;51.86894000;5.39848000;2023-02-28T04:08:29;103178.44;;;1.99
7830;BMP180;3960;51.86894000;5.39848000;2023-02-28T04:11:00;103198.97;;;2.04
7830;BMP180;3960;51.86894000;5.39848000;2023-02-28T04:13:26;103205.38;;;2.03
7830;BMP180;3960;51.86894000;5.39848000;2023-02-28T04:15:51;103200.56;;;2.05
7830;BMP180;3960;51.86894000;5.39848000;2023-02-28T04:18:17;103195.50;;;2.03
7830;BMP180;3960;51.86894000;5.39848000;2023-02-28T04:20:42;103207.50;;;2.06
7830;BMP180;3960;51.86894000;5.39848000;2023-02-28T04:23:07;103205.34;;;2.08
7830;BMP180;3960;51.86894000;5.39848000;2023-02-28T04:25:32;103211.16;;;2.10
7830;BMP180;3960;51.86894000;5.39848000;2023-02-28T04:27:58;103206.63;;;2.10
7830;BMP180;3960;51.86894000;5.39848000;2023-02-28T04:30:23;103210.09;;;2.11
7830;BMP180;3960;51.86894000;5.39848000;2023-02-28T04:32:48;103192.25;;;2.06
7830;BMP180;3960;51.86894000;5.39848000;2023-02-28T04:35:14;103212.19;;;2.14
7830;BMP180;3960;51.86894000;5.39848000;2023-02-28T04:37:39;103206.84;;;2.14
7830;BMP180;3960;51.86894000;5.39848000;2023-02-28T04:40:05;103208.72;;;2.13
7830;BMP180;3960;51.86894000;5.39848000;2023-02-28T04:42:30;103210.59;;;2.13
7830;BMP180;3960;51.86894000;5.39848000;2023-02-28T04:45:01;103207.94;;;2.13
7830;BMP180;3960;51.86894000;5.39848000;2023-02-28T04:47:27;103194.13;;;2.06
7830;BMP180;3960;51.86894000;5.39848000;2023-02-28T04:49:52;103200.78;;;2.08
7830;BMP180;3960;51.86894000;5.39848000;2023-02-28T04:52:17;103207.63;;;2.14
7830;BMP180;3960;51.86894000;5.39848000;2023-02-28T04:54:43;103210.31;;;2.14
7830;BMP180;3960;51.86894000;5.39848000;2023-02-28T04:57:08;103207.63;;;2.14
7830;BMP180;3960;51.86894000;5.39848000;2023-02-28T04:59:33;103210.31;;;2.14
7830;BMP180;3960;51.86894000;5.39848000;2023-02-28T05:01:59;103207.63;;;2.14
7830;BMP180;3960;51.86894000;5.39848000;2023-02-28T05:04:24;103204.97;;;2.14
7830;BMP180;3960;51.86894000;5.39848000;2023-02-28T05:06:49;103207.31;;;2.15
7830;BMP180;3960;51.86894000;5.39848000;2023-02-28T05:09:14;103205.97;;;2.18
7830;BMP180;3960;51.86894000;5.39848000;2023-02-28T05:11:41;103209.72;;;2.17
7830;BMP180;3960;51.86894000;5.39848000;2023-02-28T05:14:11;103211.59;;;2.16
7830;BMP180;3960;51.86894000;5.39848000;2023-02-28T05:16:36;103215.88;;;2.17
7830;BMP180;3960;51.86894000;5.39848000;2023-02-28T05:19:02;103216.69;;;2.18
7830;BMP180;3960;51.86894000;5.39848000;2023-02-28T05:21:31;103206.75;;;2.18
7830;BMP180;3960;51.86894000;5.39848000;2023-02-28T05:23:59;103211.31;;;2.18
7830;BMP180;3960;51.86894000;5.39848000;2023-02-28T05:26:25;103211.31;;;2.18
7830;BMP180;3960;51.86894000;5.39848000;2023-02-28T05:28:51;103210.53;;;2.17
7830;BMP180;3960;51.86894000;5.39848000;2023-02-28T05:31:17;103199.31;;;2.15
7830;BMP180;3960;51.86894000;5.39848000;2023-02-28T05:33:42;103198.09;;;2.08
7830;BMP180;3960;51.86894000;5.39848000;2023-02-28T05:36:07;103208.16;;;2.16
7830;BMP180;3960;51.86894000;5.39848000;2023-02-28T05:38:33;103214.28;;;2.16
7830;BMP180;3960;51.86894000;5.39848000;2023-02-28T05:40:58;103205.78;;;2.15
7830;BMP180;3960;51.86894000;5.39848000;2023-02-28T05:43:24;103212.97;;;2.14
7830;BMP180;3960;51.86894000;5.39848000;2023-02-28T05:45:49;103208.72;;;2.13
7830;BMP180;3960;51.86894000;5.39848000;2023-02-28T05:48:15;103217.81;;;2.12
7830;BMP180;3960;51.86894000;5.39848000;2023-02-28T05:50:40;103219.19;;;2.10
7830;BMP180;3960;51.86894000;5.39848000;2023-02-28T05:53:07;103194.66;;;2.08
7830;BMP180;3960;51.86894000;5.39848000;2023-02-28T05:55:32;103196.28;;;2.04
7830;BMP180;3960;51.86894000;5.39848000;2023-02-28T05:57:58;103207.50;;;2.06
7830;BMP180;3960;51.86894000;5.39848000;2023-02-28T06:00:23;103216.09;;;2.03
7830;BMP180;3960;51.86894000;5.39848000;2023-02-28T06:02:49;103219.56;;;2.03
7830;BMP180;3960;51.86894000;5.39848000;2023-02-28T06:05:16;103201.50;;;1.95
7830;BMP180;3960;51.86894000;5.39848000;2023-02-28T06:07:41;103205.19;;;1.99
7830;BMP180;3960;51.86894000;5.39848000;2023-02-28T06:10:07;103215.88;;;1.99
7830;BMP180;3960;51.86894000;5.39848000;2023-02-28T06:12:33;103214.88;;;1.95
7830;BMP180;3960;51.86894000;5.39848000;2023-02-28T06:14:58;103221.00;;;1.96
7830;BMP180;3960;51.86894000;5.39848000;2023-02-28T06:17:23;103210.59;;;1.94
7830;BMP180;3960;51.86894000;5.39848000;2023-02-28T06:19:48;103204.78;;;1.92
7830;BMP180;3960;51.86894000;5.39848000;2023-02-28T06:22:14;103199.69;;;1.91
7830;BMP180;3960;51.86894000;5.39848000;2023-02-28T06:24:39;103178.19;;;1.82
7830;BMP180;3960;51.86894000;5.39848000;2023-02-28T06:27:04;103180.34;;;1.80
7830;BMP180;3960;51.86894000;5.39848000;2023-02-28T06:29:31;103207.44;;;1.92
7830;BMP180;3960;51.86894000;5.39848000;2023-02-28T06:31:57;103205.91;;;1.86
7830;BMP180;3960;51.86894000;5.39848000;2023-02-28T06:34:22;103186.50;;;1.81
7830;BMP180;3960;51.86894000;5.39848000;2023-02-28T06:36:50;103220.00;;;1.92
7830;BMP180;3960;51.86894000;5.39848000;2023-02-28T06:39:15;103202.44;;;1.86
7830;BMP180;3960;51.86894000;5.39848000;2023-02-28T06:41:41;103219.22;;;1.91
7830;BMP180;3960;51.86894000;5.39848000;2023-02-28T06:44:14;103218.69;;;1.89
7830;BMP180;3960;51.86894000;5.39848000;2023-02-28T06:46:41;103222.97;;;1.90
7830;BMP180;3960;51.86894000;5.39848000;2023-02-28T06:49:07;103224.56;;;1.91
7830;BMP180;3960;51.86894000;5.39848000;2023-02-28T06:51:37;103227.50;;;1.90
7830;BMP180;3960;51.86894000;5.39848000;2023-02-28T06:54:04;103231.75;;;1.91
7830;BMP180;3960;51.86894000;5.39848000;2023-02-28T06:56:29;103231.22;;;1.94
7830;BMP180;3960;51.86894000;5.39848000;2023-02-28T06:58:55;103234.38;;;1.96
7830;BMP180;3960;51.86894000;5.39848000;2023-02-28T07:01:21;103217.91;;;1.89
7830;BMP180;3960;51.86894000;5.39848000;2023-02-28T07:03:48;103230.81;;;2.00
7830;BMP180;3960;51.86894000;5.39848000;2023-02-28T07:06:18;103234.78;;;2.03
7830;BMP180;3960;51.86894000;5.39848000;2023-02-28T07:08:43;103233.94;;;2.07
7830;BMP180;3960;51.86894000;5.39848000;2023-02-28T07:11:09;103244.06;;;2.10
7830;BMP180;3960;51.86894000;5.39848000;2023-02-28T07:13:35;103217.69;;;2.04
7830;BMP180;3960;51.86894000;5.39848000;2023-02-28T07:16:03;103230.63;;;2.15
7830;BMP180;3960;51.86894000;5.39848000;2023-02-28T07:18:28;103235.66;;;2.16
7830;BMP180;3960;51.86894000;5.39848000;2023-02-28T07:20:54;103250.50;;;2.27
7830;BMP180;3960;51.86894000;5.39848000;2023-02-28T07:23:20;103249.31;;;2.33
7830;BMP180;3960;51.86894000;5.39848000;2023-02-28T07:25:46;103249.75;;;2.40
7830;BMP180;3960;51.86894000;5.39848000;2023-02-28T07:28:12;103250.44;;;2.46
7830;BMP180;3960;51.86894000;5.39848000;2023-02-28T07:30:39;103255.94;;;2.54
7830;BMP180;3960;51.86894000;5.39848000;2023-02-28T07:33:04;103260.13;;;2.60
7830;BMP180;3960;51.86894000;5.39848000;2023-02-28T07:35:30;103254.78;;;2.60
7830;BMP180;3960;51.86894000;5.39848000;2023-02-28T07:37:57;103258.16;;;2.66
7830;BMP180;3960;51.86894000;5.39848000;2023-02-28T07:40:22;103263.59;;;2.74
7830;BMP180;3960;51.86894000;5.39848000;2023-02-28T07:42:48;103257.91;;;2.81
7830;BMP180;3960;51.86894000;5.39848000;2023-02-28T07:45:13;103265.03;;;2.85
7830;BMP180;3960;51.86894000;5.39848000;2023-02-28T07:47:39;103260.16;;;2.87
7830;BMP180;3960;51.86894000;5.39848000;2023-02-28T07:50:06;103275.09;;;2.93
7830;BMP180;3960;51.86894000;5.39848000;2023-02-28T07:52:32;103266.25;;;2.92
7830;BMP180;3960;51.86894000;5.39848000;2023-02-28T07:54:57;103260.69;;;2.89
7830;BMP180;3960;51.86894000;5.39848000;2023-02-28T07:57:22;103264.06;;;2.94
7830;BMP180;3960;51.86894000;5.39848000;2023-02-28T07:59:48;103275.00;;;2.98
7830;BMP180;3960;51.86894000;5.39848000;2023-02-28T08:02:17;103274.59;;;3.04
7830;BMP180;3960;51.86894000;5.39848000;2023-02-28T08:04:43;103270.84;;;3.19
7830;BMP180;3960;51.86894000;5.39848000;2023-02-28T08:07:09;103251.19;;;3.63
7830;BMP180;3960;51.86894000;5.39848000;2023-02-28T08:09:38;103275.00;;;3.78
7830;BMP180;3960;51.86894000;5.39848000;2023-02-28T08:12:04;103266.13;;;4.05
7830;BMP180;3960;51.86894000;5.39848000;2023-02-28T08:14:29;103276.72;;;4.10
7830;BMP180;3960;51.86894000;5.39848000;2023-02-28T08:16:55;103285.78;;;4.14
7830;BMP180;3960;51.86894000;5.39848000;2023-02-28T08:19:20;103278.72;;;4.61
7830;BMP180;3960;51.86894000;5.39848000;2023-02-28T08:21:45;103278.47;;;4.71
7830;BMP180;3960;51.86894000;5.39848000;2023-02-28T08:24:10;103275.22;;;4.83
7830;BMP180;3960;51.86894000;5.39848000;2023-02-28T08:26:36;103284.56;;;4.85
7830;BMP180;3960;51.86894000;5.39848000;2023-02-28T08:29:01;103279.66;;;4.87
7830;BMP180;3960;51.86894000;5.39848000;2023-02-28T08:31:26;103272.59;;;4.91
7830;BMP180;3960;51.86894000;5.39848000;2023-02-28T08:33:51;103279.38;;;4.89
7830;BMP180;3960;51.86894000;5.39848000;2023-02-28T08:36:19;103273.16;;;4.80
7830;BMP180;3960;51.86894000;5.39848000;2023-02-28T08:38:45;103277.25;;;4.77
7830;BMP180;3960;51.86894000;5.39848000;2023-02-28T08:41:11;103283.22;;;4.74
7830;BMP180;3960;51.86894000;5.39848000;2023-02-28T08:43:38;103275.06;;;4.57
7830;BMP180;3960;51.86894000;5.39848000;2023-02-28T08:46:04;103275.38;;;4.56
7830;BMP180;3960;51.86894000;5.39848000;2023-02-28T08:48:31;103263.28;;;4.45
7830;BMP180;3960;51.86894000;5.39848000;2023-02-28T08:51:00;103269.31;;;4.72
7830;BMP180;3960;51.86894000;5.39848000;2023-02-28T08:53:26;103276.94;;;4.79
7830;BMP180;3960;51.86894000;5.39848000;2023-02-28T08:55:59;103271.88;;;4.77
7830;BMP180;3960;51.86894000;5.39848000;2023-02-28T08:58:25;103257.97;;;4.53
7830;BMP180;3960;51.86894000;5.39848000;2023-02-28T09:00:51;103275.09;;;4.44
7830;BMP180;3960;51.86894000;5.39848000;2023-02-28T09:03:17;103270.22;;;4.46
7830;BMP180;3960;51.86894000;5.39848000;2023-02-28T09:05:55;103273.28;;;4.53
7830;BMP180;3960;51.86894000;5.39848000;2023-02-28T09:08:21;103260.84;;;4.57
7830;BMP180;3960;51.86894000;5.39848000;2023-02-28T09:10:46;103270.78;;;4.78
7830;BMP180;3960;51.86894000;5.39848000;2023-02-28T09:13:12;103272.00;;;5.03
7830;BMP180;3960;51.86894000;5.39848000;2023-02-28T09:15:38;103277.00;;;5.65
7830;BMP180;3960;51.86894000;5.39848000;2023-02-28T09:18:03;103263.34;;;6.34
7830;BMP180;3960;51.86894000;5.39848000;2023-02-28T09:20:29;103272.19;;;6.59
7830;BMP180;3960;51.86894000;5.39848000;2023-02-28T09:22:54;103275.34;;;6.70
7830;BMP180;3960;51.86894000;5.39848000;2023-02-28T09:25:20;103258.31;;;7.03
7830;BMP180;3960;51.86894000;5.39848000;2023-02-28T09:27:45;103292.31;;;7.24
7830;BMP180;3960;51.86894000;5.39848000;2023-02-28T09:30:11;103292.13;;;7.29
7830;BMP180;3960;51.86894000;5.39848000;2023-02-28T09:32:36;103288.69;;;7.12
7830;BMP180;3960;51.86894000;5.39848000;2023-02-28T09:35:02;103280.94;;;7.11
7830;BMP180;3960;51.86894000;5.39848000;2023-02-28T09:37:27;103294.97;;;7.33
7830;BMP180;3960;51.86894000;5.39848000;2023-02-28T09:39:54;103286.94;;;7.53
7830;BMP180;3960;51.86894000;5.39848000;2023-02-28T09:42:32;103290.88;;;7.64
7830;BMP180;3960;51.86894000;5.39848000;2023-02-28T09:45:00;103294.34;;;7.65
7830;BMP180;3960;51.86894000;5.39848000;2023-02-28T09:47:31;103291.66;;;7.65
7830;BMP180;3960;51.86894000;5.39848000;2023-02-28T09:50:03;103285.25;;;7.49
7830;BMP180;3960;51.86894000;5.39848000;2023-02-28T09:52:32;103283.31;;;7.49
7830;BMP180;3960;51.86894000;5.39848000;2023-02-28T09:55:28;103292.59;;;7.69
7830;BMP180;3960;51.86894000;5.39848000;2023-02-28T09:57:55;103271.47;;;7.42
7830;BMP180;3960;51.86894000;5.39848000;2023-02-28T10:00:30;103286.88;;;7.33
7830;BMP180;3960;51.86894000;5.39848000;2023-02-28T10:05:37;103258.19;;;7.28
7830;BMP180;3960;51.86894000;5.39848000;2023-02-28T10:08:16;103275.41;;;7.44
7830;BMP180;3960;51.86894000;5.39848000;2023-02-28T10:10:45;103272.53;;;7.49
7830;BMP180;3960;51.86894000;5.39848000;2023-02-28T10:13:36;103274.19;;;7.33
7830;BMP180;3960;51.86894000;5.39848000;2023-02-28T10:16:06;103277.44;;;7.19
7830;BMP180;3960;51.86894000;5.39848000;2023-02-28T10:19:01;103267.28;;;7.16
7830;BMP180;3960;51.86894000;5.39848000;2023-02-28T10:21:37;103261.97;;;6.99
7830;BMP180;3960;51.86894000;5.39848000;2023-02-28T10:24:26;103266.91;;;6.88
7830;BMP180;3960;51.86894000;5.39848000;2023-02-28T10:26:59;103261.34;;;6.93
7830;BMP180;3960;51.86894000;5.39848000;2023-02-28T10:29:26;103262.00;;;6.90
7830;BMP180;3960;51.86894000;5.39848000;2023-02-28T10:31:51;103262.00;;;6.90
7830;BMP180;3960;51.86894000;5.39848000;2023-02-28T10:34:17;103258.03;;;6.79
7830;BMP180;3960;51.86894000;5.39848000;2023-02-28T10:36:42;103250.78;;;6.71
7830;BMP180;3960;51.86894000;5.39848000;2023-02-28T10:39:43;103259.03;;;6.58
7830;BMP180;3960;51.86894000;5.39848000;2023-02-28T10:42:27;103264.44;;;6.50
7830;BMP180;3960;51.86894000;5.39848000;2023-02-28T10:45:06;103255.41;;;6.54
7830;BMP180;3960;51.86894000;5.39848000;2023-02-28T10:47:33;103259.69;;;6.55
7830;BMP180;3960;51.86894000;5.39848000;2023-02-28T10:49:59;103258.41;;;6.61
7830;BMP180;3960;51.86894000;5.39848000;2023-02-28T10:52:40;103244.47;;;6.59
7830;BMP180;3960;51.86894000;5.39848000;2023-02-28T10:55:35;103249.34;;;6.65
7830;BMP180;3960;51.86894000;5.39848000;2023-02-28T10:58:01;103237.31;;;6.80
7830;BMP180;3960;51.86894000;5.39848000;2023-02-28T11:00:32;103236.34;;;6.84
7830;BMP180;3960;51.86894000;5.39848000;2023-02-28T11:02:58;103237.91;;;6.94
7830;BMP180;3960;51.86894000;5.39848000;2023-02-28T11:05:34;103232.28;;;7.07
7830;BMP180;3960;51.86894000;5.39848000;2023-02-28T11:08:12;103237.72;;;6.99
7830;BMP180;3960;51.86894000;5.39848000;2023-02-28T11:10:38;103232.81;;;6.92
7830;BMP180;3960;51.86894000;5.39848000;2023-02-28T11:13:05;103221.72;;;6.94
7830;BMP180;3960;51.86894000;5.39848000;2023-02-28T11:15:33;103215.50;;;7.02
7830;BMP180;3960;51.86894000;5.39848000;2023-02-28T11:18:00;103227.72;;;6.99
7830;BMP180;3960;51.86894000;5.39848000;2023-02-28T11:20:30;103226.81;;;6.87
7830;BMP180;3960;51.86894000;5.39848000;2023-02-28T11:22:58;103228.97;;;7.02
7830;BMP180;3960;51.86894000;5.39848000;2023-02-28T11:25:35;103229.84;;;7.22
7830;BMP180;3960;51.86894000;5.39848000;2023-02-28T11:28:08;103235.38;;;7.26
7830;BMP180;3960;51.86894000;5.39848000;2023-02-28T11:36:18;103224.38;;;7.39
7830;BMP180;3960;51.86894000;5.39848000;2023-02-28T11:38:44;103213.94;;;7.58
7830;BMP180;3960;51.86894000;5.39848000;2023-02-28T11:44:18;103213.56;;;7.68
7830;BMP180;3960;51.86894000;5.39848000;2023-02-28T11:52:02;103209.03;;;7.81
7830;BMP180;3960;51.86894000;5.39848000;2023-02-28T11:57:44;103200.13;;;7.80
7830;BMP180;3960;51.86894000;5.39848000;2023-02-28T12:00:16;103207.97;;;7.94
7830;BMP180;3960;51.86894000;5.39848000;2023-02-28T12:05:30;103207.91;;;8.02
7830;BMP180;3960;51.86894000;5.39848000;2023-02-28T12:08:03;103213.63;;;8.00
7830;BMP180;3960;51.86894000;5.39848000;2023-02-28T12:13:46;103195.78;;;8.61
7830;BMP180;3960;51.86894000;5.39848000;2023-02-28T12:22:03;103173.28;;;8.69
7830;BMP180;3960;51.86894000;5.39848000;2023-02-28T12:27:21;103171.59;;;8.64
7830;BMP180;3960;51.86894000;5.39848000;2023-02-28T12:33:07;103181.41;;;8.80
7830;BMP180;3960;51.86894000;5.39848000;2023-02-28T12:35:58;103179.47;;;8.69
7830;BMP180;3960;51.86894000;5.39848000;2023-02-28T12:38:26;103180.75;;;8.95
7830;BMP180;3960;51.86894000;5.39848000;2023-02-28T12:41:05;103169.34;;;9.02
7830;BMP180;3960;51.86894000;5.39848000;2023-02-28T12:43:41;103171.72;;;9.03
7830;BMP180;3960;51.86894000;5.39848000;2023-02-28T12:48:46;103159.34;;;9.02
7830;BMP180;3960;51.86894000;5.39848000;2023-02-28T12:51:12;103154.84;;;8.82
7830;BMP180;3960;51.86894000;5.39848000;2023-02-28T12:56:48;103152.56;;;8.84
7830;BMP180;3960;51.86894000;5.39848000;2023-02-28T12:59:25;103142.56;;;8.85
7830;BMP180;3960;51.86894000;5.39848000;2023-02-28T13:02:00;103166.00;;;9.05
7830;BMP180;3960;51.86894000;5.39848000;2023-02-28T13:10:24;103143.25;;;9.06
7830;BMP180;3960;51.86894000;5.39848000;2023-02-28T13:12:53;103128.16;;;9.05
7830;BMP180;3960;51.86894000;5.39848000;2023-02-28T13:15:25;103133.09;;;9.03
7830;BMP180;3960;51.86894000;5.39848000;2023-02-28T13:17:56;103135.56;;;8.84
7830;BMP180;3960;51.86894000;5.39848000;2023-02-28T13:20:25;103129.25;;;8.56
7830;BMP180;3960;51.86894000;5.39848000;2023-02-28T13:22:53;103110.06;;;8.37
7830;BMP180;3960;51.86894000;5.39848000;2023-02-28T13:27:51;103122.34;;;8.47
7830;BMP180;3960;51.86894000;5.39848000;2023-02-28T13:35:48;103121.50;;;8.22
7830;BMP180;3960;51.86894000;5.39848000;2023-02-28T13:38:23;103115.66;;;8.00
7830;BMP180;3960;51.86894000;5.39848000;2023-02-28T13:40:49;103114.22;;;8.02
7830;BMP180;3960;51.86894000;5.39848000;2023-02-28T13:43:17;103111.59;;;7.94
7830;BMP180;3960;51.86894000;5.39848000;2023-02-28T13:46:10;103105.44;;;7.94
7830;BMP180;3960;51.86894000;5.39848000;2023-02-28T13:48:37;103119.44;;;8.07
7830;BMP180;3960;51.86894000;5.39848000;2023-02-28T13:56:54;103095.88;;;7.96
7830;BMP180;3960;51.86894000;5.39848000;2023-02-28T13:59:34;103083.00;;;7.81
7830;BMP180;3960;51.86894000;5.39848000;2023-02-28T14:02:34;103097.72;;;7.84
7830;BMP180;3960;51.86894000;5.39848000;2023-02-28T14:05:06;103105.06;;;7.83
7830;BMP180;3960;51.86894000;5.39848000;2023-02-28T14:07:45;103098.19;;;7.86
7830;BMP180;3960;51.86894000;5.39848000;2023-02-28T14:12:55;103087.63;;;7.60